Time;durP1;ratioP1;P1;durP2;ratioP2;P2;SDS_P1;SDS_P2;PMS_P1;PMS_P2;Temp;Humidity;BMP_temperature;BMP_pressure;BME280_temperature;BME280_humidity;BME280_pressure;Samples;Min_cycle;Max_cycle;Signal;HPM_P1;HPM_P2
2023/04/21 00:01:11;;;;;;;26.17;19.17;;;;;;;7.22;96.05;101022.31;4969965;28;20305;-72
2023/04/21 00:03:38;;;;;;;23.20;17.90;;;;;;;7.22;95.85;101013.50;4963895;28;20283;-71
2023/04/21 00:06:06;;;;;;;25.10;18.13;;;;;;;7.18;95.61;101020.72;4967484;28;20223;-72
2023/04/21 00:08:33;;;;;;;28.87;19.03;;;;;;;7.12;95.56;101013.06;4969726;28;20564;-71
2023/04/21 00:10:59;;;;;;;24.17;18.20;;;;;;;7.07;95.06;101015.03;4969244;28;20287;-71
2023/04/21 00:13:27;;;;;;;26.83;19.73;;;;;;;7.04;95.84;101012.50;4970408;28;20228;-71
2023/04/21 00:15:53;;;;;;;26.93;18.33;;;;;;;7.01;95.83;101011.78;4967657;28;20216;-73
2023/04/21 00:18:20;;;;;;;26.20;17.90;;;;;;;6.97;96.31;101009.28;4967367;28;20215;-72
2023/04/21 00:20:47;;;;;;;28.37;19.80;;;;;;;6.97;95.97;101013.72;4971165;28;20678;-71
2023/04/21 00:23:13;;;;;;;32.53;21.57;;;;;;;6.95;96.89;101003.19;4974518;28;20282;-71
2023/04/21 00:25:40;;;;;;;34.80;22.30;;;;;;;6.96;97.21;101004.91;4977633;28;20209;-73
2023/04/21 00:28:06;;;;;;;35.17;22.83;;;;;;;6.99;98.49;100992.47;4972860;28;20208;-72
2023/04/21 00:30:34;;;;;;;37.53;23.33;;;;;;;7.01;98.56;100998.53;4974453;28;20591;-71
2023/04/21 00:33:00;;;;;;;34.43;21.87;;;;;;;7.02;99.18;100981.72;4978667;28;20724;-72
2023/04/21 00:35:27;;;;;;;34.20;22.87;;;;;;;7.04;98.72;100985.16;4974346;28;20578;-73
2023/04/21 00:37:53;;;;;;;37.90;23.30;;;;;;;7.06;99.59;100980.66;4976834;28;20239;-71
2023/04/21 00:40:20;;;;;;;36.17;23.17;;;;;;;7.09;100.00;100975.25;4973504;28;20220;-72
2023/04/21 00:42:46;;;;;;;38.90;24.03;;;;;;;7.12;100.00;100977.78;4974169;28;20232;-71
2023/04/21 00:45:14;;;;;;;34.93;23.90;;;;;;;7.13;100.00;100971.53;4974232;28;20234;-72
2023/04/21 00:47:42;;;;;;;31.53;22.27;;;;;;;7.13;100.00;100975.06;4974877;28;20593;-71
2023/04/21 00:50:09;;;;;;;34.93;22.90;;;;;;;7.14;100.00;100981.22;4972491;28;20673;-72
2023/04/21 00:52:38;;;;;;;33.83;22.93;;;;;;;7.13;100.00;100969.75;4974536;28;20231;-71
2023/04/21 00:55:06;;;;;;;36.27;22.83;;;;;;;7.13;100.00;100963.59;4972483;28;20836;-70
2023/04/21 00:57:35;;;;;;;36.50;22.43;;;;;;;7.12;100.00;100962.75;4977525;28;20208;-71
2023/04/21 01:00:03;;;;;;;30.90;21.47;;;;;;;7.10;100.00;100958.44;4971770;28;20219;-72
2023/04/21 01:02:30;;;;;;;28.37;20.53;;;;;;;7.09;100.00;100957.56;4973820;28;20282;-70
2023/04/21 01:04:58;;;;;;;34.27;23.00;;;;;;;7.09;100.00;100962.00;4965528;28;20228;-71
2023/04/21 01:07:25;;;;;;;34.63;22.33;;;;;;;7.08;100.00;100960.28;4978239;28;20235;-72
2023/04/21 01:09:52;;;;;;;29.77;22.03;;;;;;;7.06;100.00;100962.13;4977258;28;20212;-71
2023/04/21 01:12:18;;;;;;;29.10;20.30;;;;;;;7.04;100.00;100959.56;4962592;28;20698;-72
2023/04/21 01:14:45;;;;;;;32.07;21.10;;;;;;;7.03;100.00;100962.25;4971136;28;20721;-71
2023/04/21 01:17:11;;;;;;;30.20;21.03;;;;;;;7.02;100.00;100966.69;4971369;28;20222;-72
2023/04/21 01:19:42;;;;;;;32.00;21.93;;;;;;;7.03;100.00;100967.56;4973921;28;20642;-72
2023/04/21 01:22:11;;;;;;;31.07;21.10;;;;;;;7.01;100.00;100958.81;4972950;28;20219;-74
2023/04/21 01:24:39;;;;;;;29.07;20.53;;;;;;;6.99;100.00;100960.69;4968819;28;20311;-71
2023/04/21 01:27:10;;;;;;;28.70;21.43;;;;;;;6.96;100.00;100959.03;4972505;28;20680;-72
2023/04/21 01:29:37;;;;;;;28.93;21.17;;;;;;;6.93;100.00;100962.69;4974114;28;20227;-71
2023/04/21 01:32:08;;;;;;;28.10;20.93;;;;;;;6.91;100.00;100963.66;4974675;28;20285;-73
2023/04/21 01:34:35;;;;;;;31.87;21.37;;;;;;;6.90;100.00;100964.59;4970349;28;20235;-71
2023/04/21 01:37:01;;;;;;;26.60;20.37;;;;;;;6.89;100.00;100971.66;4971559;28;20717;-72
2023/04/21 01:39:30;;;;;;;29.13;21.90;;;;;;;6.87;100.00;100957.63;4968535;28;20227;-71
2023/04/21 01:41:57;;;;;;;26.93;19.80;;;;;;;6.84;100.00;100970.13;4971508;28;20203;-71
2023/04/21 01:44:25;;;;;;;27.30;19.43;;;;;;;6.76;100.00;100964.34;4969789;28;20228;-71
2023/04/21 01:46:51;;;;;;;25.57;19.93;;;;;;;6.67;100.00;100967.34;4971131;28;20290;-71
2023/04/21 01:49:18;;;;;;;29.27;19.33;;;;;;;6.65;100.00;100962.13;4965247;28;20598;-71
2023/04/21 01:51:44;;;;;;;24.73;19.97;;;;;;;6.61;100.00;100960.56;4969919;28;20228;-72
2023/04/21 01:54:11;;;;;;;29.83;19.60;;;;;;;6.61;100.00;100955.25;4974457;28;20251;-72
2023/04/21 01:56:39;;;;;;;30.70;21.07;;;;;;;6.59;100.00;100959.75;4970594;28;20216;-72
2023/04/21 01:59:05;;;;;;;25.60;20.03;;;;;;;6.59;100.00;100954.47;4967103;28;20631;-73
2023/04/21 02:01:32;;;;;;;31.80;22.13;;;;;;;6.63;100.00;100952.56;4968976;28;20688;-71
2023/04/21 02:03:58;;;;;;;28.27;20.50;;;;;;;6.64;100.00;100955.09;4972225;28;20231;-71
2023/04/21 02:06:25;;;;;;;32.23;21.77;;;;;;;6.67;100.00;100946.19;4971263;28;20228;-72
2023/04/21 02:08:51;;;;;;;30.73;22.03;;;;;;;6.68;100.00;100946.13;4970742;28;20219;-73
2023/04/21 02:11:17;;;;;;;35.33;22.57;;;;;;;6.71;100.00;100937.19;4971505;28;20212;-72
2023/04/21 02:13:45;;;;;;;31.57;22.73;;;;;;;6.75;100.00;100937.00;4969961;28;20228;-72
2023/04/21 02:16:12;;;;;;;31.80;22.83;;;;;;;6.76;100.00;100946.66;4966823;28;20217;-72
2023/04/21 02:18:38;;;;;;;34.07;21.67;;;;;;;6.78;100.00;100942.16;4970757;28;20224;-71
2023/04/21 02:21:06;;;;;;;33.77;22.60;;;;;;;6.81;100.00;100941.16;4968694;28;20632;-71
2023/04/21 02:23:32;;;;;;;34.30;25.00;;;;;;;6.81;100.00;100934.06;4969119;28;20781;-71
2023/04/21 02:25:59;;;;;;;32.87;22.60;;;;;;;6.84;100.00;100935.72;4970890;28;20212;-71
2023/04/21 02:28:25;;;;;;;34.30;23.17;;;;;;;6.85;100.00;100933.00;4967119;28;20255;-71
2023/04/21 02:30:53;;;;;;;31.93;22.70;;;;;;;6.86;100.00;100929.44;4966916;28;20219;-71
2023/04/21 02:33:19;;;;;;;34.27;22.47;;;;;;;6.88;100.00;100932.88;4967267;28;20896;-71
2023/04/21 02:35:46;;;;;;;31.97;22.07;;;;;;;6.89;100.00;100934.59;4967205;28;20679;-72
2023/04/21 02:38:13;;;;;;;29.30;21.10;;;;;;;6.88;100.00;100930.25;4968262;28;20255;-72
2023/04/21 02:40:39;;;;;;;31.27;21.07;;;;;;;6.87;100.00;100931.16;4966156;28;20212;-70
2023/04/21 02:43:06;;;;;;;30.43;21.17;;;;;;;6.87;100.00;100935.59;4966695;28;20290;-71
2023/04/21 02:45:33;;;;;;;30.07;21.47;;;;;;;6.86;100.00;100932.09;4967750;28;20214;-72
2023/04/21 02:48:00;;;;;;;35.07;21.67;;;;;;;6.85;100.00;100937.44;4967766;28;20209;-73
2023/04/21 02:50:27;;;;;;;33.27;22.07;;;;;;;6.83;100.00;100934.00;4969014;28;20570;-69
2023/04/21 02:52:53;;;;;;;28.73;20.77;;;;;;;6.81;100.00;100939.34;4969192;28;20232;-72
2023/04/21 02:55:21;;;;;;;33.53;21.37;;;;;;;6.79;100.00;100935.09;4966288;28;20216;-72
2023/04/21 02:57:47;;;;;;;29.97;21.47;;;;;;;6.79;100.00;100938.59;4967397;28;20204;-70
2023/04/21 03:00:15;;;;;;;29.00;20.27;;;;;;;6.77;100.00;100944.88;4963913;28;20215;-73
2023/04/21 03:02:41;;;;;;;27.20;19.87;;;;;;;6.77;100.00;100944.88;4966312;28;20208;-71
2023/04/21 03:05:10;;;;;;;32.43;20.57;;;;;;;6.74;100.00;100948.50;4961091;28;20234;-71
2023/04/21 03:07:36;;;;;;;27.73;19.90;;;;;;;6.75;100.00;100947.59;4966346;28;20204;-72
2023/04/21 03:10:03;;;;;;;29.57;19.70;;;;;;;6.74;100.00;100948.50;4963151;28;20207;-72
2023/04/21 03:12:29;;;;;;;26.77;18.77;;;;;;;6.73;100.00;100945.94;4951691;23;20233;-73
2023/04/21 03:14:56;;;;;;;26.37;19.63;;;;;;;6.72;100.00;100950.34;4915922;29;20670;-70
2023/04/21 03:17:22;;;;;;;25.27;19.43;;;;;;;6.71;100.00;100950.41;4916389;29;20600;-70
2023/04/21 03:19:49;;;;;;;27.93;19.87;;;;;;;6.70;100.00;100951.34;4910394;29;20644;-70
2023/04/21 03:22:16;;;;;;;30.53;20.00;;;;;;;6.67;100.00;100947.03;4901196;29;20226;-70
2023/04/21 03:24:43;;;;;;;27.47;20.17;;;;;;;6.68;100.00;100945.25;4897866;29;20214;-70
2023/04/21 03:27:09;;;;;;;27.73;20.33;;;;;;;6.68;100.00;100951.41;4901628;29;20219;-72
2023/04/21 03:29:36;;;;;;;24.67;19.10;;;;;;;6.66;100.00;100947.97;4902612;29;20206;-70
2023/04/21 03:32:02;;;;;;;25.90;19.37;;;;;;;6.66;100.00;100947.09;4900202;29;20616;-70
2023/04/21 03:34:29;;;;;;;27.03;19.47;;;;;;;6.66;100.00;100952.41;4901769;29;20206;-70
2023/04/21 03:36:55;;;;;;;24.90;18.50;;;;;;;6.63;100.00;100959.53;4893280;29;20210;-70
2023/04/21 03:39:23;;;;;;;24.93;17.80;;;;;;;6.61;100.00;100955.25;4898090;29;20477;-70
2023/04/21 03:41:50;;;;;;;25.33;17.50;;;;;;;6.58;100.00;100961.53;4895044;29;20237;-69
2023/04/21 03:44:16;;;;;;;20.80;17.20;;;;;;;6.57;100.00;100967.75;4897008;29;20210;-71
2023/04/21 03:46:43;;;;;;;21.37;17.33;;;;;;;6.56;100.00;100967.81;4898149;29;20294;-70
2023/04/21 03:49:09;;;;;;;23.00;17.63;;;;;;;6.53;100.00;100968.78;4897132;29;20692;-70
2023/04/21 03:51:36;;;;;;;22.73;17.70;;;;;;;6.51;100.00;100968.00;4901392;29;20233;-70
2023/04/21 03:54:02;;;;;;;20.43;17.17;;;;;;;6.48;100.00;100967.25;4895789;29;20238;-70
2023/04/21 03:56:30;;;;;;;20.57;16.60;;;;;;;6.46;100.00;100969.09;4901081;29;20203;-70
2023/04/21 03:58:56;;;;;;;26.37;17.70;;;;;;;6.43;100.00;100964.81;4902311;29;20596;-70
2023/04/21 04:01:23;;;;;;;22.87;17.27;;;;;;;6.41;100.00;100968.44;4889884;29;20238;-72
2023/04/21 04:03:49;;;;;;;22.83;17.77;;;;;;;6.37;100.00;100972.13;4891241;29;20611;-70
2023/04/21 04:06:16;;;;;;;19.87;16.40;;;;;;;6.35;100.00;100972.19;4893724;29;20615;-70
2023/04/21 04:08:42;;;;;;;19.23;16.13;;;;;;;6.33;100.00;100971.41;4897146;29;20213;-70
2023/04/21 04:11:09;;;;;;;22.03;16.87;;;;;;;6.30;100.00;100970.66;4902372;29;20245;-70
2023/04/21 04:13:36;;;;;;;25.27;17.80;;;;;;;6.28;100.00;100970.72;4896413;29;20230;-69
2023/04/21 04:16:03;;;;;;;22.70;17.97;;;;;;;6.26;100.00;100969.94;4897310;29;20211;-70
2023/04/21 04:18:29;;;;;;;26.20;19.27;;;;;;;6.24;100.00;100966.50;4894734;29;21006;-70
2023/04/21 04:20:56;;;;;;;23.03;16.43;;;;;;;6.17;100.00;100965.88;4897512;29;20235;-70
2023/04/21 04:23:22;;;;;;;22.03;17.23;;;;;;;6.11;100.00;100949.38;4894864;29;20211;-71
2023/04/21 04:25:50;;;;;;;22.83;18.13;;;;;;;6.06;100.00;100957.50;4896119;29;20589;-70
2023/04/21 04:28:17;;;;;;;22.27;17.17;;;;;;;6.04;100.00;100955.84;4895330;29;20210;-70
2023/04/21 04:30:44;;;;;;;23.63;18.67;;;;;;;6.01;100.00;100951.53;4891939;29;20210;-70
2023/04/21 04:33:11;;;;;;;28.10;18.93;;;;;;;6.01;100.00;100950.69;4890666;29;20227;-71
2023/04/21 04:35:37;;;;;;;26.73;19.17;;;;;;;6.03;100.00;100960.28;4889474;29;20694;-70
2023/04/21 04:38:06;;;;;;;27.10;18.63;;;;;;;6.03;100.00;100952.34;4891650;29;20626;-71
2023/04/21 04:40:32;;;;;;;24.03;18.33;;;;;;;6.04;100.00;100956.72;4895673;29;20211;-70
2023/04/21 04:43:00;;;;;;;21.57;18.00;;;;;;;6.06;100.00;100962.81;4890835;29;20821;-70
2023/04/21 04:45:28;;;;;;;29.33;18.53;;;;;;;6.06;100.00;100962.81;4894408;29;20219;-70
2023/04/21 04:47:56;;;;;;;27.27;18.70;;;;;;;6.08;100.00;100955.69;4893678;29;20207;-70
2023/04/21 04:50:23;;;;;;;25.00;18.60;;;;;;;6.13;100.00;100948.41;4892798;29;20216;-70
2023/04/21 04:52:50;;;;;;;27.27;18.07;;;;;;;6.17;100.00;100959.72;4892558;29;20235;-70
2023/04/21 04:55:17;;;;;;;23.97;19.60;;;;;;;6.19;100.00;100947.28;4894226;29;20203;-70
2023/04/21 04:57:44;;;;;;;26.30;18.70;;;;;;;6.20;100.00;100947.25;4894957;29;20207;-71
2023/04/21 05:00:13;;;;;;;20.50;17.83;;;;;;;6.23;100.00;100952.41;4900165;29;20583;-71
2023/04/21 05:02:39;;;;;;;24.00;19.03;;;;;;;6.23;100.00;100946.25;4897913;29;20322;-69
2023/04/21 05:05:08;;;;;;;27.57;19.70;;;;;;;6.26;100.00;100951.44;4899309;29;20606;-69
2023/04/21 05:07:34;;;;;;;24.70;18.03;;;;;;;6.27;100.00;100951.34;4893896;29;20214;-69
2023/04/21 05:10:03;;;;;;;25.10;19.00;;;;;;;6.30;100.00;100952.13;4895054;29;20692;-70
2023/04/21 05:12:29;;;;;;;26.90;19.43;;;;;;;6.33;100.00;100959.94;4901121;29;20243;-68
2023/04/21 05:14:56;;;;;;;24.27;19.60;;;;;;;6.35;100.00;100958.09;4896211;29;20218;-68
2023/04/21 05:17:22;;;;;;;27.50;20.17;;;;;;;6.40;100.00;100961.44;4901246;29;20215;-69
2023/04/21 05:19:49;;;;;;;25.73;18.40;;;;;;;6.43;100.00;100961.31;4900949;29;20210;-70
2023/04/21 05:22:17;;;;;;;27.33;18.43;;;;;;;6.45;100.00;100960.31;4892474;29;20257;-70
2023/04/21 05:24:43;;;;;;;23.20;17.87;;;;;;;6.50;100.00;100957.47;4887691;29;20666;-69
2023/04/21 05:27:10;;;;;;;26.73;19.17;;;;;;;6.55;100.00;100960.78;4886430;29;20227;-70
2023/04/21 05:29:36;;;;;;;27.47;18.50;;;;;;;6.61;100.00;100965.84;4888919;29;20218;-69
2023/04/21 05:32:02;;;;;;;23.17;18.63;;;;;;;6.69;100.00;100961.06;4895111;29;20239;-69
2023/04/21 05:34:29;;;;;;;26.33;20.37;;;;;;;6.78;100.00;100957.19;4896315;29;20282;-69
2023/04/21 05:36:55;;;;;;;26.13;19.07;;;;;;;6.89;100.00;100955.78;4889041;29;20323;-70
2023/04/21 05:39:23;;;;;;;28.63;18.87;;;;;;;7.01;100.00;100954.38;4889774;29;20846;-69
2023/04/21 05:41:49;;;;;;;24.47;18.43;;;;;;;7.14;100.00;100944.13;4900064;29;20225;-69
2023/04/21 05:44:16;;;;;;;24.47;17.73;;;;;;;7.27;100.00;100950.59;4889061;29;20696;-69
2023/04/21 05:46:43;;;;;;;23.47;17.67;;;;;;;7.40;100.00;100945.59;4891207;29;20219;-70
2023/04/21 05:49:09;;;;;;;20.43;17.00;;;;;;;7.51;100.00;100943.34;4897038;29;20206;-69
2023/04/21 05:51:35;;;;;;;24.93;16.47;;;;;;;7.62;100.00;100957.78;4890943;29;20234;-69
2023/04/21 05:54:02;;;;;;;20.97;15.13;;;;;;;7.73;100.00;100951.13;4892913;29;20502;-69
2023/04/21 05:56:30;;;;;;;21.20;15.60;;;;;;;7.83;100.00;100949.78;4889941;29;20230;-70
2023/04/21 05:59:15;;;;;;;17.40;15.37;;;;;;;7.93;100.00;100943.94;4893777;29;20306;-69
2023/04/21 06:01:42;;;;;;;18.07;15.47;;;;;;;8.05;100.00;100939.88;4893336;29;20685;-69
2023/04/21 06:04:08;;;;;;;22.03;14.67;;;;;;;8.17;100.00;100947.22;4893309;29;20206;-70
2023/04/21 06:06:35;;;;;;;20.63;14.50;;;;;;;8.29;100.00;100948.41;4894451;29;20668;-70
2023/04/21 06:09:02;;;;;;;20.17;15.47;;;;;;;8.39;100.00;100943.56;4897163;29;20210;-70
2023/04/21 06:11:30;;;;;;;17.87;14.30;;;;;;;8.50;100.00;100939.41;4897376;29;20719;-69
2023/04/21 06:13:58;;;;;;;15.23;12.57;;;;;;;8.62;100.00;100948.56;4899593;29;20724;-70
2023/04/21 06:16:24;;;;;;;20.17;13.37;;;;;;;8.70;100.00;100936.63;4899955;29;20214;-69
2023/04/21 06:18:51;;;;;;;20.50;13.93;;;;;;;8.82;100.00;100932.47;4894541;29;20807;-70
2023/04/21 06:21:17;;;;;;;16.90;13.10;;;;;;;8.91;100.00;100931.16;4887209;29;20250;-71
2023/04/21 06:23:44;;;;;;;17.80;13.77;;;;;;;8.99;100.00;100935.09;4889592;29;20219;-70
2023/04/21 06:26:10;;;;;;;16.43;13.50;;;;;;;9.10;100.00;100928.38;4896204;29;20217;-69
2023/04/21 06:28:39;;;;;;;17.63;13.37;;;;;;;9.19;100.00;100931.41;4894954;29;20207;-70
2023/04/21 06:31:05;;;;;;;18.50;13.00;;;;;;;9.31;100.00;100925.47;4893258;29;20234;-69
2023/04/21 06:33:32;;;;;;;16.67;12.83;;;;;;;9.42;100.00;100940.81;4893260;29;20227;-69
2023/04/21 06:35:58;;;;;;;15.30;12.40;;;;;;;9.52;100.00;100931.38;4895664;29;20222;-70
2023/04/21 06:38:25;;;;;;;20.37;12.30;;;;;;;9.62;100.00;100929.09;4892356;29;20221;-69
2023/04/21 06:40:51;;;;;;;21.53;12.17;;;;;;;9.72;100.00;100923.16;4889843;29;20325;-71
2023/04/21 06:43:18;;;;;;;19.03;12.70;;;;;;;9.84;100.00;100926.13;4896338;29;20580;-70
2023/04/21 06:45:46;;;;;;;16.30;12.13;;;;;;;9.95;100.00;100921.03;4893213;29;20207;-70
2023/04/21 06:48:12;;;;;;;14.97;11.80;;;;;;;10.04;100.00;100928.50;4897985;29;20214;-70
2023/04/21 06:50:39;;;;;;;18.80;12.27;;;;;;;10.15;100.00;100923.44;4895146;29;20211;-69
2023/04/21 06:53:05;;;;;;;18.07;11.93;;;;;;;10.26;100.00;100925.50;4900649;29;20337;-70
2023/04/21 06:55:32;;;;;;;12.03;10.70;;;;;;;10.36;100.00;100916.91;4892185;29;20222;-70
2023/04/21 06:57:58;;;;;;;14.50;11.40;;;;;;;10.45;100.00;100920.81;4893163;29;20218;-69
2023/04/21 07:00:24;;;;;;;19.90;12.17;;;;;;;10.52;98.87;100929.31;4897052;29;20629;-70
2023/04/21 07:02:52;;;;;;;14.03;11.90;;;;;;;10.60;98.15;100917.25;4896628;29;20243;-70
2023/04/21 07:05:19;;;;;;;17.10;11.70;;;;;;;10.70;97.40;100917.59;4902729;29;20216;-70
2023/04/21 07:07:45;;;;;;;12.83;10.03;;;;;;;10.79;96.51;100925.00;4903622;29;20591;-70
2023/04/21 07:10:17;;;;;;;17.73;11.90;;;;;;;10.89;96.57;100915.53;4901443;29;20673;-69
2023/04/21 07:12:44;;;;;;;20.10;11.53;;;;;;;11.02;96.20;100918.31;4901823;29;20266;-72
2023/04/21 07:15:11;;;;;;;15.57;11.27;;;;;;;11.14;95.74;100923.72;4898105;29;20228;-70
2023/04/21 07:17:37;;;;;;;19.27;10.87;;;;;;;11.28;94.92;100914.06;4893134;29;20224;-71
2023/04/21 07:20:07;;;;;;;16.73;10.50;;;;;;;11.39;93.53;100925.75;4894499;29;20215;-70
2023/04/21 07:22:34;;;;;;;14.50;10.93;;;;;;;11.49;92.31;100920.69;4897472;29;20228;-69
2023/04/21 07:25:01;;;;;;;18.03;10.50;;;;;;;11.56;90.73;100915.84;4895464;29;20215;-69
2023/04/21 07:27:27;;;;;;;13.20;10.13;;;;;;;11.67;90.07;100913.31;4897737;29;20221;-69
2023/04/21 07:29:54;;;;;;;17.50;8.83;;;;;;;11.76;88.64;100908.31;4894592;29;20209;-71
2023/04/21 07:32:20;;;;;;;11.63;9.33;;;;;;;11.85;88.09;100914.00;4901010;29;20245;-70
2023/04/21 07:34:47;;;;;;;14.67;9.30;;;;;;;11.94;88.15;100900.94;4892203;29;20535;-70
2023/04/21 07:37:16;;;;;;;14.40;9.50;;;;;;;12.03;86.91;100902.13;4887104;29;20219;-69
2023/04/21 07:39:42;;;;;;;11.83;9.47;;;;;;;12.13;86.46;100909.44;4894923;29;20687;-69
2023/04/21 07:42:09;;;;;;;13.93;9.27;;;;;;;12.23;85.82;100896.34;4892926;29;20316;-71
2023/04/21 07:44:36;;;;;;;12.13;9.13;;;;;;;12.34;85.23;100900.97;4889513;29;20294;-72
2023/04/21 07:47:04;;;;;;;17.23;9.60;;;;;;;12.44;84.41;100894.06;4888169;29;20216;-69
2023/04/21 07:49:30;;;;;;;12.67;9.53;;;;;;;12.55;83.97;100890.66;4897827;29;20207;-70
2023/04/21 07:51:57;;;;;;;12.00;8.57;;;;;;;12.63;82.96;100899.88;4896821;29;20234;-70
2023/04/21 07:54:25;;;;;;;13.93;8.83;;;;;;;12.72;82.02;100888.53;4901041;29;20234;-70
2023/04/21 07:56:51;;;;;;;12.83;8.17;;;;;;;12.83;81.31;100901.19;4901645;29;20662;-69
2023/04/21 07:59:17;;;;;;;14.70;8.67;;;;;;;12.90;80.55;100880.25;4903743;29;20710;-70
2023/04/21 08:01:44;;;;;;;9.67;7.63;;;;;;;12.96;79.36;100880.66;4900484;29;20243;-70
2023/04/21 08:04:10;;;;;;;13.37;8.93;;;;;;;13.05;79.17;100879.16;4902285;29;20293;-70
2023/04/21 08:06:37;;;;;;;9.23;7.17;;;;;;;13.16;77.74;100884.66;4892437;29;20234;-70
2023/04/21 08:09:03;;;;;;;12.87;8.57;;;;;;;13.22;77.54;100873.53;4899189;29;20241;-69
2023/04/21 08:11:31;;;;;;;12.33;7.60;;;;;;;13.32;77.06;100879.91;4905405;29;20730;-69
2023/04/21 08:13:58;;;;;;;12.60;7.70;;;;;;;13.43;75.86;100880.03;4902506;29;20878;-70
2023/04/21 08:16:24;;;;;;;11.57;8.37;;;;;;;13.54;76.63;100874.75;4898686;29;20221;-70
2023/04/21 08:18:51;;;;;;;12.47;8.47;;;;;;;13.65;75.51;100871.28;4894004;29;20219;-71
2023/04/21 08:21:17;;;;;;;17.40;8.07;;;;;;;13.79;75.25;100871.13;4902618;29;20229;-70
2023/04/21 08:23:43;;;;;;;12.50;7.80;;;;;;;13.94;74.21;100868.31;4898985;29;20210;-69
2023/04/21 08:26:10;;;;;;;17.73;8.80;;;;;;;14.04;72.91;100880.03;4899445;29;20210;-70
2023/04/21 08:28:38;;;;;;;11.67;7.60;;;;;;;14.13;72.04;100871.34;4894593;29;20706;-71
2023/04/21 08:31:05;;;;;;;16.00;8.30;;;;;;;14.22;71.63;100871.50;4901828;29;20615;-70
2023/04/21 08:33:31;;;;;;;16.87;8.33;;;;;;;14.33;71.13;100873.34;4898255;29;20223;-70
2023/04/21 08:35:57;;;;;;;12.97;7.83;;;;;;;14.45;70.92;100864.44;4903161;29;20214;-70
2023/04/21 08:38:24;;;;;;;14.40;8.20;;;;;;;14.58;70.02;100857.16;4899310;29;20237;-69
2023/04/21 08:40:50;;;;;;;12.93;8.90;;;;;;;14.71;69.34;100873.16;4897321;29;20269;-70
2023/04/21 08:43:17;;;;;;;12.40;7.23;;;;;;;14.82;68.27;100864.28;4898458;29;20625;-70
2023/04/21 08:45:45;;;;;;;11.80;7.10;;;;;;;14.89;67.09;100865.50;4900222;29;20236;-70
2023/04/21 08:48:15;;;;;;;15.17;7.33;;;;;;;14.95;66.64;100857.00;4897978;29;20219;-69
2023/04/21 08:50:44;;;;;;;11.17;6.77;;;;;;;15.02;65.49;100863.59;4901736;29;20574;-70
2023/04/21 08:53:11;;;;;;;16.20;7.47;;;;;;;15.09;65.16;100861.25;4898489;29;20248;-70
2023/04/21 08:55:38;;;;;;;8.17;6.53;;;;;;;15.19;65.03;100847.03;4903680;29;20234;-70
2023/04/21 08:58:05;;;;;;;9.50;6.63;;;;;;;15.34;64.41;100857.50;4891788;29;20224;-70
2023/04/21 09:00:32;;;;;;;10.57;6.63;;;;;;;15.44;62.73;100861.16;4900667;29;20584;-69
2023/04/21 09:03:00;;;;;;;10.87;6.57;;;;;;;15.54;62.89;100854.06;4897377;29;20223;-69
2023/04/21 09:05:28;;;;;;;9.67;6.30;;;;;;;15.68;62.86;100852.97;4900298;29;20207;-70
2023/04/21 09:08:08;;;;;;;11.23;7.60;;;;;;;15.78;61.88;100856.59;4892623;29;20706;-69
2023/04/21 09:10:34;;;;;;;12.43;7.33;;;;;;;15.86;62.10;100854.16;4906225;29;20218;-69
2023/04/21 09:13:06;;;;;;;9.80;7.37;;;;;;;16.02;63.45;100846.53;4966858;23;20632;-67
2023/04/21 09:15:38;;;;;;;9.97;6.80;;;;;;;16.19;63.21;100855.88;4952062;28;20235;-69
2023/04/21 09:18:11;;;;;;;16.33;7.17;;;;;;;16.30;61.50;100851.31;4949249;28;20234;-69
2023/04/21 09:20:37;;;;;;;12.30;7.37;;;;;;;16.40;60.31;100854.09;4950578;28;20218;-67
2023/04/21 09:23:04;;;;;;;10.60;6.53;;;;;;;16.41;58.75;100853.09;4933528;28;20239;-70
2023/04/21 09:25:32;;;;;;;10.70;6.63;;;;;;;16.39;58.23;100849.69;4928572;29;20208;-68
2023/04/21 09:28:00;;;;;;;13.60;7.20;;;;;;;16.44;59.20;100850.16;4931081;29;20219;-72
2023/04/21 09:30:26;;;;;;;8.97;6.90;;;;;;;16.49;58.82;100847.91;4928930;29;20221;-69
2023/04/21 09:32:56;;;;;;;10.30;6.63;;;;;;;16.54;58.64;100845.69;4931491;29;20230;-69
2023/04/21 09:35:27;;;;;;;12.10;7.80;;;;;;;16.59;58.23;100848.00;4931542;29;20717;-72
2023/04/21 09:37:54;;;;;;;9.23;6.30;;;;;;;16.64;58.22;100846.66;4927784;29;20220;-67
2023/04/21 09:40:20;;;;;;;10.53;6.20;;;;;;;16.74;58.53;100841.34;4929116;29;20239;-69
2023/04/21 09:42:48;;;;;;;8.53;6.57;;;;;;;16.82;57.47;100838.00;4931159;29;20240;-69
2023/04/21 09:45:15;;;;;;;8.07;6.20;;;;;;;16.88;56.57;100837.44;4931907;29;20236;-69
2023/04/21 09:47:42;;;;;;;9.00;6.00;;;;;;;16.90;55.62;100830.97;4931775;29;20209;-68
2023/04/21 09:50:12;;;;;;;9.97;6.30;;;;;;;16.94;55.14;100836.94;4931077;29;20332;-67
2023/04/21 09:52:40;;;;;;;14.90;6.10;;;;;;;16.97;55.24;100837.53;4927905;29;20230;-72
2023/04/21 09:55:11;;;;;;;10.13;6.47;;;;;;;17.05;55.55;100834.16;4927060;29;20284;-70
2023/04/21 09:57:39;;;;;;;10.53;6.23;;;;;;;17.11;55.89;100840.84;4922121;29;20203;-72
2023/04/21 10:00:08;;;;;;;10.57;6.47;;;;;;;17.18;55.16;100829.41;4933121;29;20218;-69
2023/04/21 10:02:37;;;;;;;7.93;6.00;;;;;;;17.23;54.44;100827.13;4931357;29;20229;-69
2023/04/21 10:05:04;;;;;;;10.10;6.17;;;;;;;17.25;53.25;100818.94;4928812;29;20211;-66
2023/04/21 10:07:31;;;;;;;7.33;5.53;;;;;;;17.29;53.43;100825.75;4926565;29;20219;-67
2023/04/21 10:10:00;;;;;;;9.10;6.00;;;;;;;17.34;53.47;100821.69;4931073;29;20221;-68
2023/04/21 10:12:27;;;;;;;8.67;5.47;;;;;;;17.43;53.82;100827.22;4930223;29;20274;-70
2023/04/21 10:14:54;;;;;;;9.80;5.70;;;;;;;17.48;51.78;100809.66;4930293;29;20234;-68
2023/04/21 10:17:25;;;;;;;10.23;6.00;;;;;;;17.52;52.13;100800.34;4931828;29;20669;-69
2023/04/21 10:19:55;;;;;;;11.63;5.67;;;;;;;17.59;51.86;100803.31;4927470;29;20284;-68
2023/04/21 10:22:30;;;;;;;10.30;5.03;;;;;;;17.61;50.03;100818.34;4927722;29;20639;-68
2023/04/21 10:24:57;;;;;;;6.67;4.83;;;;;;;17.63;49.37;100799.34;4929453;29;20435;-66
2023/04/21 10:27:36;;;;;;;11.67;5.90;;;;;;;17.66;51.00;100791.88;4930099;29;20206;-69
2023/04/21 10:30:18;;;;;;;8.40;5.27;;;;;;;17.75;50.75;100784.78;4925014;29;20289;-69
2023/04/21 10:32:45;;;;;;;6.17;4.93;;;;;;;17.80;50.20;100773.59;4931810;29;20323;-69
2023/04/21 10:35:12;;;;;;;10.80;5.60;;;;;;;17.81;49.08;100772.63;4923729;29;20231;-68
2023/04/21 10:37:41;;;;;;;9.90;4.83;;;;;;;17.88;49.64;100773.78;4924571;29;20238;-68
2023/04/21 10:40:29;;;;;;;7.13;5.20;;;;;;;17.96;48.77;100773.91;4928067;29;20758;-70
2023/04/21 10:42:56;;;;;;;7.37;5.30;;;;;;;17.98;48.08;100764.69;4926768;29;20406;-69
2023/04/21 10:45:25;;;;;;;8.90;5.43;;;;;;;18.01;48.62;100755.47;4924560;29;20218;-68
2023/04/21 10:47:53;;;;;;;7.00;4.90;;;;;;;18.07;48.28;100759.44;4929674;29;20224;-70
2023/04/21 10:50:21;;;;;;;9.10;5.07;;;;;;;18.13;47.01;100742.69;4925922;29;20673;-68
2023/04/21 10:52:54;;;;;;;9.70;5.30;;;;;;;18.19;48.29;100752.91;4925783;29;20239;-70
2023/04/21 10:55:21;;;;;;;9.87;4.73;;;;;;;18.27;47.75;100750.34;4927384;29;20239;-67
2023/04/21 10:57:48;;;;;;;9.73;5.50;;;;;;;18.33;47.82;100749.75;4931554;28;20208;-68
2023/04/21 11:00:19;;;;;;;8.63;5.53;;;;;;;18.41;47.33;100733.72;4929329;29;20215;-68
2023/04/21 11:02:53;;;;;;;7.73;4.70;;;;;;;18.43;47.03;100738.97;4931487;29;20730;-70
2023/04/21 11:05:20;;;;;;;9.23;4.83;;;;;;;18.45;46.04;100728.88;4929316;29;20711;-67
2023/04/21 11:07:47;;;;;;;11.17;5.17;;;;;;;18.48;46.01;100734.81;4931812;29;20212;-68
2023/04/21 11:10:13;;;;;;;9.93;5.03;;;;;;;18.51;45.96;100730.97;4929508;29;20207;-68
2023/04/21 11:12:40;;;;;;;7.40;4.60;;;;;;;18.56;45.29;100742.19;4925506;29;20261;-68
2023/04/21 11:15:09;;;;;;;8.33;5.40;;;;;;;18.58;45.40;100724.00;4926002;29;20243;-66